Wetterdaten: Woche 16.04.12 - 22.04.12 (KW16)
Datum Zeit Temp. Innen Temp. Aussen UV X Diff Temp. Feuchte Inne Feuchte Auss Sonnenschein Luftdruck Regen ab 0,1 Wind Sonnenschein T Regendauer Windben
16.04.2012 00:00 15,4 C 4,3 C 0,0 UV-I 0,0 C 48 % 79 % 0 % 1019,0 hPa 0,0 l/m 14,0 km/h (3 Bft) 0,00 h 0,00 h 22,5 km/h (4 Bft)
16.04.2012 01:00 15,2 C 4,0 C 0,0 UV-I 0,0 C 48 % 82 % 0 % 1019,4 hPa 0,0 l/m 12,5 km/h (3 Bft) 0,00 h 0,00 h 17,8 km/h (3 Bft)
16.04.2012 02:00 15,2 C 3,5 C 0,0 UV-I 0,0 C 48 % 83 % 0 % 1019,6 hPa 0,0 l/m 9,6 km/h (2 Bft) 0,00 h 0,00 h 15,2 km/h (3 Bft)
16.04.2012 03:00 15,1 C 2,6 C 0,0 UV-I 0,0 C 48 % 85 % 0 % 1019,6 hPa 0,0 l/m 4,9 km/h (1 Bft) 0,00 h 0,00 h 10,7 km/h (2 Bft)
16.04.2012 04:00 14,9 C 1,8 C 0,0 UV-I 0,0 C 48 % 87 % 0 % 1019,9 hPa 0,0 l/m 0,7 km/h (0 Bft) 0,00 h 0,00 h 1,5 km/h (1 Bft)
16.04.2012 05:00 14,8 C 0,9 C 0,0 UV-I 0,0 C 48 % 88 % 0 % 1020,1 hPa 0,0 l/m 0,0 km/h (0 Bft) 0,00 h 0,03 h 0,0 km/h (0 Bft)
16.04.2012 06:00 14,7 C 0,1 C 0,0 UV-I 0,0 C 47 % 89 % 0 % 1020,3 hPa 0,0 l/m 0,0 km/h (0 Bft) 0,00 h 0,03 h 0,0 km/h (0 Bft)
16.04.2012 07:00 14,5 C 0,2 C 0,0 UV-I 0,0 C 47 % 91 % 0 % 1020,7 hPa 0,0 l/m 0,1 km/h (0 Bft) 0,00 h 0,03 h 0,7 km/h (0 Bft)
16.04.2012 08:00 14,5 C 2,1 C 0,0 UV-I 1,6 C 48 % 92 % 32 % 1021,3 hPa 0,0 l/m 4,7 km/h (1 Bft) 0,30 h 0,00 h 9,4 km/h (2 Bft)
16.04.2012 09:00 14,7 C 4,7 C 0,7 UV-I 6,6 C 49 % 86 % 100 % 1021,5 hPa 0,0 l/m 11,0 km/h (2 Bft) 1,00 h 0,00 h 16,6 km/h (3 Bft)
16.04.2012 10:00 14,9 C 6,4 C 2,5 UV-I 6,1 C 50 % 76 % 100 % 1021,7 hPa 0,0 l/m 13,7 km/h (3 Bft) 1,00 h 0,00 h 19,4 km/h (3 Bft)
16.04.2012 11:00 15,3 C 7,7 C 3,2 UV-I 5,9 C 49 % 64 % 100 % 1022,0 hPa 0,0 l/m 13,5 km/h (3 Bft) 1,00 h 0,00 h 20,9 km/h (4 Bft)
16.04.2012 12:00 15,6 C 8,0 C 1,7 UV-I 3,4 C 48 % 61 % 76 % 1022,2 hPa 0,0 l/m 13,8 km/h (3 Bft) 0,53 h 0,03 h 19,2 km/h (3 Bft)
16.04.2012 13:00 16,1 C 8,7 C 2,3 UV-I 5,1 C 47 % 60 % 95 % 1022,2 hPa 0,0 l/m 12,4 km/h (3 Bft) 0,87 h 0,00 h 19,7 km/h (3 Bft)
16.04.2012 14:00 17,2 C 9,3 C 1,9 UV-I 4,3 C 44 % 57 % 96 % 1023,3 hPa 0,0 l/m 11,9 km/h (2 Bft) 0,90 h 0,00 h 17,9 km/h (3 Bft)
16.04.2012 15:00 17,7 C 9,1 C 1,3 UV-I 2,3 C 42 % 56 % 63 % 1023,0 hPa 0,0 l/m 12,0 km/h (2 Bft) 0,30 h 0,00 h 16,4 km/h (3 Bft)
16.04.2012 16:00 18,6 C 9,8 C 2,1 UV-I 3,5 C 39 % 50 % 75 % 1023,2 hPa 0,0 l/m 13,4 km/h (3 Bft) 0,57 h 0,00 h 19,5 km/h (3 Bft)
16.04.2012 17:00 18,8 C 10,5 C 2,1 UV-I 4,3 C 38 % 48 % 94 % 1023,0 hPa 0,0 l/m 11,9 km/h (2 Bft) 0,87 h 0,00 h 18,2 km/h (3 Bft)
16.04.2012 18:00 18,4 C 9,6 C 0,2 UV-I 0,8 C 36 % 50 % 23 % 1021,9 hPa 0,0 l/m 11,0 km/h (2 Bft) 0,07 h 0,00 h 16,5 km/h (3 Bft)
16.04.2012 19:00 17,2 C 8,5 C 0,0 UV-I 0,0 C 39 % 55 % 0 % 1020,8 hPa 0,0 l/m 4,2 km/h (1 Bft) 0,00 h 0,00 h 6,6 km/h (2 Bft)
16.04.2012 20:00 16,5 C 7,3 C 0,0 UV-I 0,0 C 41 % 62 % 0 % 1020,7 hPa 0,0 l/m 5,7 km/h (1 Bft) 0,00 h 0,00 h 9,0 km/h (2 Bft)
16.04.2012 21:00 15,9 C 5,9 C 0,0 UV-I 0,0 C 41 % 66 % 0 % 1021,0 hPa 0,0 l/m 0,7 km/h (0 Bft) 0,00 h 0,00 h 1,2 km/h (1 Bft)
16.04.2012 22:00 15,5 C 4,3 C 0,0 UV-I 0,0 C 42 % 71 % 0 % 1021,0 hPa 0,0 l/m 0,0 km/h (0 Bft) 0,00 h 0,00 h 0,0 km/h (0 Bft)
16.04.2012 23:00 15,2 C 3,1 C 0,0 UV-I 0,0 C 42 % 75 % 0 % 1020,7 hPa 0,0 l/m 0,0 km/h (0 Bft) 0,00 h 0,00 h 0,0 km/h (0 Bft)
17.04.2012 00:00 14,9 C 2,2 C 0,0 UV-I 0,0 C 42 % 78 % 0 % 1020,3 hPa 0,0 l/m 0,0 km/h (0 Bft) 0,00 h 0,00 h 0,0 km/h (0 Bft)
17.04.2012 01:00 14,7 C 1,1 C 0,0 UV-I 0,0 C 42 % 81 % 0 % 1019,5 hPa 0,0 l/m 0,0 km/h (0 Bft) 0,00 h 0,00 h 0,0 km/h (0 Bft)
17.04.2012 02:00 14,4 C 0,4 C 0,0 UV-I 0,0 C 43 % 84 % 0 % 1018,8 hPa 0,0 l/m 0,0 km/h (0 Bft) 0,00 h 0,00 h 0,0 km/h (0 Bft)
17.04.2012 03:00 14,2 C -0,3 C 0,0 UV-I 0,0 C 43 % 86 % 0 % 1017,8 hPa 0,0 l/m 0,0 km/h (0 Bft) 0,00 h 0,03 h 0,0 km/h (0 Bft)
17.04.2012 04:00 14,0 C -0,5 C 0,0 UV-I 0,0 C 43 % 88 % 0 % 1017,3 hPa 0,0 l/m 0,0 km/h (0 Bft) 0,00 h 0,00 h 0,0 km/h (0 Bft)
17.04.2012 05:00 13,9 C -0,8 C 0,0 UV-I 0,0 C 43 % 89 % 0 % 1016,1 hPa 0,0 l/m 0,0 km/h (0 Bft) 0,00 h 0,03 h 0,0 km/h (0 Bft)
17.04.2012 06:00 13,7 C -0,9 C 0,0 UV-I 0,0 C 43 % 90 % 0 % 1015,0 hPa 0,0 l/m 0,0 km/h (0 Bft) 0,00 h 0,07 h 0,0 km/h (0 Bft)
17.04.2012 07:00 13,5 C -0,2 C 0,0 UV-I 0,0 C 43 % 91 % 0 % 1014,6 hPa 0,0 l/m 1,4 km/h (1 Bft) 0,00 h 0,00 h 4,7 km/h (1 Bft)
17.04.2012 08:00 13,4 C 2,0 C 0,1 UV-I 1,2 C 44 % 91 % 33 % 1013,6 hPa 0,0 l/m 5,4 km/h (1 Bft) 0,27 h 0,00 h 10,7 km/h (2 Bft)
17.04.2012 09:00 13,5 C 5,5 C 0,9 UV-I 5,4 C 44 % 84 % 100 % 1012,7 hPa 0,0 l/m 8,6 km/h (2 Bft) 1,00 h 0,00 h 13,9 km/h (3 Bft)
17.04.2012 10:00 13,9 C 7,7 C 1,1 UV-I 3,2 C 42 % 67 % 86 % 1011,7 hPa 0,0 l/m 9,2 km/h (2 Bft) 0,67 h 0,00 h 15,8 km/h (3 Bft)
17.04.2012 11:00 14,2 C 9,3 C 2,4 UV-I 4,3 C 37 % 52 % 98 % 1010,7 hPa 0,0 l/m 10,0 km/h (2 Bft) 1,00 h 0,00 h 20,2 km/h (4 Bft)
17.04.2012 12:00 14,4 C 10,3 C 2,1 UV-I 4,5 C 36 % 48 % 100 % 1009,5 hPa 0,0 l/m 10,5 km/h (2 Bft) 1,00 h 0,00 h 17,3 km/h (3 Bft)
17.04.2012 13:00 15,2 C 11,1 C 2,4 UV-I 4,4 C 35 % 47 % 100 % 1008,3 hPa 0,0 l/m 11,5 km/h (2 Bft) 1,00 h 0,00 h 19,4 km/h (3 Bft)
17.04.2012 14:00 16,7 C 12,4 C 3,1 UV-I 4,7 C 33 % 44 % 100 % 1008,3 hPa 0,0 l/m 14,0 km/h (3 Bft) 1,00 h 0,00 h 21,5 km/h (4 Bft)
17.04.2012 15:00 18,0 C 12,9 C 2,8 UV-I 4,3 C 30 % 41 % 100 % 1007,4 hPa 0,0 l/m 12,0 km/h (2 Bft) 1,00 h 0,00 h 24,3 km/h (4 Bft)
17.04.2012 16:00 18,4 C 12,8 C 1,5 UV-I 2,7 C 29 % 39 % 73 % 1005,4 hPa 0,0 l/m 12,1 km/h (2 Bft) 0,37 h 0,00 h 19,5 km/h (3 Bft)
17.04.2012 17:00 17,6 C 12,6 C 0,3 UV-I 1,2 C 29 % 40 % 33 % 1003,1 hPa 0,0 l/m 8,7 km/h (2 Bft) 0,00 h 0,00 h 14,2 km/h (3 Bft)
17.04.2012 18:00 16,8 C 12,0 C 0,0 UV-I 0,1 C 30 % 40 % 2 % 1001,7 hPa 0,0 l/m 8,3 km/h (2 Bft) 0,00 h 0,00 h 13,7 km/h (3 Bft)
17.04.2012 19:00 16,0 C 10,4 C 0,0 UV-I 0,0 C 33 % 52 % 0 % 1001,3 hPa 0,0 l/m 10,0 km/h (2 Bft) 0,00 h 0,10 h 14,8 km/h (3 Bft)
17.04.2012 20:00 15,5 C 8,6 C 0,0 UV-I 0,0 C 38 % 67 % 0 % 1001,4 hPa 0,0 l/m 6,7 km/h (2 Bft) 0,00 h 0,57 h 12,2 km/h (2 Bft)
17.04.2012 21:00 15,1 C 7,5 C 0,0 UV-I 0,0 C 43 % 77 % 0 % 1001,3 hPa 0,1 l/m 6,1 km/h (2 Bft) 0,00 h 0,47 h 10,6 km/h (2 Bft)
17.04.2012 22:00 14,8 C 6,9 C 0,0 UV-I 0,0 C 45 % 83 % 0 % 1000,8 hPa 0,5 l/m 3,9 km/h (1 Bft) 0,00 h 0,73 h 7,6 km/h (2 Bft)
17.04.2012 23:00 14,8 C 6,7 C 0,0 UV-I 0,0 C 47 % 85 % 0 % 1000,0 hPa 0,0 l/m 4,4 km/h (1 Bft) 0,00 h 0,00 h 10,4 km/h (2 Bft)
18.04.2012 00:00 14,6 C 6,6 C 0,0 UV-I 0,0 C 47 % 84 % 0 % 999,5 hPa 0,0 l/m 4,8 km/h (1 Bft) 0,00 h 0,00 h 9,8 km/h (2 Bft)
18.04.2012 01:00 14,4 C 6,3 C 0,0 UV-I 0,0 C 47 % 84 % 0 % 999,1 hPa 0,0 l/m 1,9 km/h (1 Bft) 0,00 h 0,00 h 4,8 km/h (1 Bft)
18.04.2012 02:00 14,3 C 5,9 C 0,0 UV-I 0,0 C 47 % 84 % 0 % 998,5 hPa 0,0 l/m 1,9 km/h (1 Bft) 0,00 h 0,00 h 5,9 km/h (2 Bft)
18.04.2012 03:00 14,1 C 5,1 C 0,0 UV-I 0,0 C 48 % 86 % 0 % 997,8 hPa 0,0 l/m 0,9 km/h (0 Bft) 0,00 h 0,00 h 2,9 km/h (1 Bft)
18.04.2012 04:00 13,9 C 4,4 C 0,0 UV-I 0,0 C 48 % 87 % 0 % 997,4 hPa 0,0 l/m 1,8 km/h (1 Bft) 0,00 h 0,00 h 5,2 km/h (1 Bft)
18.04.2012 05:00 13,9 C 4,2 C 0,0 UV-I 0,0 C 48 % 89 % 0 % 996,9 hPa 0,0 l/m 2,6 km/h (1 Bft) 0,00 h 0,00 h 5,9 km/h (2 Bft)
18.04.2012 06:00 13,8 C 3,7 C 0,0 UV-I 0,0 C 49 % 89 % 0 % 996,3 hPa 0,0 l/m 2,4 km/h (1 Bft) 0,00 h 0,00 h 5,5 km/h (1 Bft)
18.04.2012 07:00 13,6 C 3,9 C 0,0 UV-I 0,0 C 49 % 91 % 0 % 996,2 hPa 0,0 l/m 4,5 km/h (1 Bft) 0,00 h 0,00 h 8,4 km/h (2 Bft)
18.04.2012 08:00 13,8 C 5,3 C 0,0 UV-I 0,6 C 50 % 91 % 16 % 995,7 hPa 0,0 l/m 5,7 km/h (1 Bft) 0,00 h 0,00 h 9,0 km/h (2 Bft)
18.04.2012 09:00 14,1 C 7,8 C 0,9 UV-I 5,0 C 50 % 88 % 93 % 995,0 hPa 0,0 l/m 7,8 km/h (2 Bft) 0,87 h 0,00 h 13,5 km/h (3 Bft)
18.04.2012 10:00 14,4 C 9,8 C 0,6 UV-I 2,4 C 50 % 80 % 59 % 994,7 hPa 0,0 l/m 9,5 km/h (2 Bft) 0,30 h 0,00 h 16,3 km/h (3 Bft)
18.04.2012 11:00 14,8 C 10,8 C 0,4 UV-I 1,6 C 49 % 73 % 45 % 994,3 hPa 0,0 l/m 9,5 km/h (2 Bft) 0,00 h 0,00 h 16,2 km/h (3 Bft)
18.04.2012 12:00 15,1 C 11,1 C 0,2 UV-I 0,6 C 48 % 69 % 17 % 993,5 hPa 0,1 l/m 12,0 km/h (2 Bft) 0,00 h 0,37 h 20,9 km/h (4 Bft)
18.04.2012 13:00 15,2 C 10,9 C 0,2 UV-I 0,4 C 48 % 71 % 11 % 992,8 hPa 0,9 l/m 10,8 km/h (2 Bft) 0,00 h 0,40 h 16,3 km/h (3 Bft)
18.04.2012 14:00 15,7 C 11,7 C 1,3 UV-I 2,4 C 49 % 72 % 67 % 992,5 hPa 0,0 l/m 7,7 km/h (2 Bft) 0,43 h 0,00 h 17,3 km/h (3 Bft)
18.04.2012 15:00 16,4 C 12,4 C 0,6 UV-I 1,3 C 46 % 65 % 36 % 992,1 hPa 0,0 l/m 10,0 km/h (2 Bft) 0,00 h 0,00 h 15,3 km/h (3 Bft)
18.04.2012 16:00 16,7 C 12,4 C 0,9 UV-I 1,7 C 46 % 65 % 47 % 991,6 hPa 0,0 l/m 11,9 km/h (2 Bft) 0,00 h 0,00 h 20,4 km/h (4 Bft)
18.04.2012 17:00 16,9 C 12,3 C 0,5 UV-I 1,4 C 45 % 64 % 40 % 990,8 hPa 0,0 l/m 9,8 km/h (2 Bft) 0,23 h 0,00 h 16,6 km/h (3 Bft)
18.04.2012 18:00 17,0 C 12,2 C 0,1 UV-I 0,1 C 45 % 65 % 3 % 990,6 hPa 0,0 l/m 13,4 km/h (3 Bft) 0,00 h 0,00 h 23,1 km/h (4 Bft)
18.04.2012 19:00 17,0 C 11,7 C 0,0 UV-I 0,0 C 44 % 67 % 0 % 989,8 hPa 0,0 l/m 11,5 km/h (2 Bft) 0,00 h 0,00 h 18,2 km/h (3 Bft)
18.04.2012 20:00 16,4 C 10,8 C 0,0 UV-I 0,0 C 46 % 72 % 0 % 989,0 hPa 0,0 l/m 11,2 km/h (2 Bft) 0,00 h 0,03 h 16,4 km/h (3 Bft)
18.04.2012 21:00 15,9 C 10,6 C 0,0 UV-I 0,0 C 47 % 72 % 0 % 989,0 hPa 0,0 l/m 9,7 km/h (2 Bft) 0,00 h 0,00 h 15,0 km/h (3 Bft)
18.04.2012 22:00 15,6 C 10,3 C 0,0 UV-I 0,0 C 48 % 74 % 0 % 988,5 hPa 0,0 l/m 11,3 km/h (2 Bft) 0,00 h 0,00 h 17,3 km/h (3 Bft)
18.04.2012 23:00 15,7 C 10,2 C 0,0 UV-I 0,0 C 48 % 73 % 0 % 988,2 hPa 0,0 l/m 10,5 km/h (2 Bft) 0,00 h 0,03 h 17,2 km/h (3 Bft)
19.04.2012 00:00 15,7 C 10,3 C 0,0 UV-I 0,0 C 48 % 73 % 0 % 988,1 hPa 0,0 l/m 11,1 km/h (2 Bft) 0,00 h 0,13 h 20,7 km/h (4 Bft)
19.04.2012 01:00 15,6 C 10,1 C 0,0 UV-I 0,0 C 48 % 73 % 0 % 988,0 hPa 0,0 l/m 9,7 km/h (2 Bft) 0,00 h 0,00 h 17,5 km/h (3 Bft)
19.04.2012 02:00 15,6 C 10,2 C 0,0 UV-I 0,0 C 48 % 73 % 0 % 987,7 hPa 0,0 l/m 9,5 km/h (2 Bft) 0,00 h 0,00 h 17,8 km/h (3 Bft)
19.04.2012 03:00 15,6 C 10,0 C 0,0 UV-I 0,0 C 49 % 74 % 0 % 987,4 hPa 0,0 l/m 10,4 km/h (2 Bft) 0,00 h 0,00 h 18,0 km/h (3 Bft)
19.04.2012 04:00 15,5 C 10,0 C 0,0 UV-I 0,0 C 49 % 74 % 0 % 987,2 hPa 0,0 l/m 10,5 km/h (2 Bft) 0,00 h 0,00 h 17,9 km/h (3 Bft)
19.04.2012 05:00 15,6 C 10,0 C 0,0 UV-I 0,0 C 49 % 74 % 0 % 987,1 hPa 0,1 l/m 10,7 km/h (2 Bft) 0,00 h 0,27 h 18,6 km/h (3 Bft)
19.04.2012 06:00 15,5 C 8,5 C 0,0 UV-I 0,0 C 50 % 83 % 0 % 987,7 hPa 0,1 l/m 5,3 km/h (1 Bft) 0,00 h 0,33 h 10,1 km/h (2 Bft)
19.04.2012 07:00 15,3 C 8,2 C 0,0 UV-I 0,0 C 51 % 84 % 0 % 988,1 hPa 0,0 l/m 5,8 km/h (2 Bft) 0,00 h 0,03 h 12,7 km/h (3 Bft)
19.04.2012 08:00 15,4 C 8,5 C 0,0 UV-I 0,3 C 51 % 83 % 9 % 988,8 hPa 0,0 l/m 7,7 km/h (2 Bft) 0,00 h 0,00 h 13,1 km/h (3 Bft)
19.04.2012 09:00 15,5 C 8,9 C 0,4 UV-I 1,3 C 50 % 81 % 36 % 989,0 hPa 0,0 l/m 8,3 km/h (2 Bft) 0,10 h 0,00 h 13,5 km/h (3 Bft)
19.04.2012 10:00 15,7 C 9,9 C 1,5 UV-I 3,0 C 50 % 77 % 82 % 989,8 hPa 0,0 l/m 10,2 km/h (2 Bft) 0,23 h 0,00 h 15,9 km/h (3 Bft)
19.04.2012 11:00 15,9 C 11,1 C 1,1 UV-I 2,7 C 49 % 72 % 68 % 990,2 hPa 0,0 l/m 11,5 km/h (2 Bft) 0,20 h 0,00 h 18,2 km/h (3 Bft)
19.04.2012 12:00 16,3 C 12,1 C 1,8 UV-I 3,4 C 49 % 68 % 87 % 990,3 hPa 0,0 l/m 10,9 km/h (2 Bft) 0,77 h 0,00 h 19,0 km/h (3 Bft)
19.04.2012 13:00 17,0 C 13,2 C 1,4 UV-I 3,3 C 47 % 64 % 75 % 990,4 hPa 0,0 l/m 7,8 km/h (2 Bft) 0,57 h 0,00 h 13,7 km/h (3 Bft)
19.04.2012 14:00 17,6 C 14,1 C 2,1 UV-I 4,5 C 44 % 56 % 97 % 991,5 hPa 0,0 l/m 7,5 km/h (2 Bft) 0,97 h 0,00 h 13,7 km/h (3 Bft)
19.04.2012 15:00 18,4 C 14,6 C 1,3 UV-I 2,9 C 40 % 51 % 78 % 991,5 hPa 0,0 l/m 6,2 km/h (2 Bft) 0,47 h 0,00 h 10,5 km/h (2 Bft)
19.04.2012 16:00 18,7 C 14,7 C 2,3 UV-I 3,7 C 40 % 54 % 98 % 991,3 hPa 0,0 l/m 7,2 km/h (2 Bft) 0,93 h 0,00 h 13,4 km/h (3 Bft)
19.04.2012 17:00 19,3 C 14,6 C 1,8 UV-I 2,8 C 39 % 56 % 71 % 992,2 hPa 0,0 l/m 5,8 km/h (2 Bft) 0,53 h 0,00 h 9,2 km/h (2 Bft)
19.04.2012 18:00 18,8 C 13,8 C 0,4 UV-I 0,7 C 39 % 56 % 20 % 991,5 hPa 0,0 l/m 4,9 km/h (1 Bft) 0,00 h 0,00 h 8,9 km/h (2 Bft)
19.04.2012 19:00 18,3 C 13,4 C 0,0 UV-I 0,1 C 39 % 57 % 2 % 991,3 hPa 0,0 l/m 3,0 km/h (1 Bft) 0,00 h 0,00 h 5,9 km/h (2 Bft)
19.04.2012 20:00 17,8 C 12,3 C 0,0 UV-I 0,0 C 42 % 63 % 0 % 991,4 hPa 0,0 l/m 3,7 km/h (1 Bft) 0,00 h 0,00 h 7,6 km/h (2 Bft)
19.04.2012 21:00 17,2 C 10,4 C 0,0 UV-I 0,0 C 44 % 71 % 0 % 991,9 hPa 0,0 l/m 2,7 km/h (1 Bft) 0,00 h 0,00 h 4,1 km/h (1 Bft)
19.04.2012 22:00 16,8 C 8,8 C 0,0 UV-I 0,0 C 46 % 76 % 0 % 992,3 hPa 0,0 l/m 0,0 km/h (0 Bft) 0,00 h 0,00 h 0,0 km/h (0 Bft)
19.04.2012 23:00 16,3 C 7,7 C 0,0 UV-I 0,0 C 47 % 81 % 0 % 992,7 hPa 0,0 l/m 1,0 km/h (0 Bft) 0,00 h 0,00 h 3,8 km/h (1 Bft)
20.04.2012 00:00 16,0 C 7,2 C 0,0 UV-I 0,0 C 48 % 83 % 0 % 992,9 hPa 0,0 l/m 1,6 km/h (1 Bft) 0,00 h 0,00 h 4,0 km/h (1 Bft)
20.04.2012 01:00 15,8 C 6,7 C 0,0 UV-I 0,0 C 48 % 84 % 0 % 992,9 hPa 0,0 l/m 0,1 km/h (0 Bft) 0,00 h 0,00 h 0,1 km/h (0 Bft)
20.04.2012 02:00 15,5 C 6,4 C 0,0 UV-I 0,0 C 48 % 86 % 0 % 992,9 hPa 0,0 l/m 0,1 km/h (0 Bft) 0,00 h 0,00 h 0,6 km/h (0 Bft)
20.04.2012 03:00 15,3 C 6,4 C 0,0 UV-I 0,0 C 49 % 86 % 0 % 993,0 hPa 0,0 l/m 0,3 km/h (0 Bft) 0,00 h 0,00 h 1,4 km/h (1 Bft)
20.04.2012 04:00 15,2 C 5,6 C 0,0 UV-I 0,0 C 49 % 87 % 0 % 993,3 hPa 0,0 l/m 0,3 km/h (0 Bft) 0,00 h 0,00 h 1,4 km/h (1 Bft)
20.04.2012 05:00 15,1 C 5,2 C 0,0 UV-I 0,0 C 49 % 88 % 0 % 993,3 hPa 0,0 l/m 1,4 km/h (1 Bft) 0,00 h 0,00 h 4,2 km/h (1 Bft)
20.04.2012 06:00 14,9 C 5,1 C 0,0 UV-I 0,0 C 49 % 90 % 0 % 993,6 hPa 0,0 l/m 1,8 km/h (1 Bft) 0,00 h 0,00 h 3,9 km/h (1 Bft)
20.04.2012 07:00 14,8 C 5,4 C 0,0 UV-I 0,0 C 50 % 90 % 0 % 994,2 hPa 0,0 l/m 2,1 km/h (1 Bft) 0,00 h 0,00 h 4,9 km/h (1 Bft)
20.04.2012 08:00 14,8 C 6,6 C 0,1 UV-I 2,6 C 51 % 90 % 42 % 994,7 hPa 0,0 l/m 2,5 km/h (1 Bft) 0,40 h 0,00 h 6,8 km/h (2 Bft)
20.04.2012 09:00 15,1 C 9,9 C 1,1 UV-I 7,9 C 53 % 84 % 100 % 995,1 hPa 0,0 l/m 3,3 km/h (1 Bft) 1,00 h 0,00 h 8,0 km/h (2 Bft)
20.04.2012 10:00 15,4 C 12,4 C 3,4 UV-I 7,9 C 50 % 70 % 100 % 995,5 hPa 0,0 l/m 5,2 km/h (1 Bft) 1,00 h 0,00 h 9,7 km/h (2 Bft)
20.04.2012 11:00 15,5 C 13,2 C 3,7 UV-I 6,3 C 49 % 65 % 100 % 995,5 hPa 0,0 l/m 6,7 km/h (2 Bft) 1,00 h 0,00 h 12,6 km/h (3 Bft)
20.04.2012 12:00 15,8 C 14,0 C 3,2 UV-I 5,6 C 47 % 58 % 100 % 995,5 hPa 0,0 l/m 8,5 km/h (2 Bft) 1,00 h 0,00 h 17,5 km/h (3 Bft)
20.04.2012 13:00 16,6 C 15,1 C 3,0 UV-I 5,6 C 44 % 52 % 100 % 995,9 hPa 0,0 l/m 9,0 km/h (2 Bft) 1,00 h 0,00 h 16,3 km/h (3 Bft)
20.04.2012 14:00 18,1 C 15,7 C 3,3 UV-I 5,8 C 40 % 49 % 100 % 997,8 hPa 0,0 l/m 9,4 km/h (2 Bft) 1,00 h 0,00 h 14,2 km/h (3 Bft)
20.04.2012 15:00 19,5 C 15,5 C 2,4 UV-I 3,9 C 38 % 49 % 95 % 997,7 hPa 0,0 l/m 8,6 km/h (2 Bft) 0,93 h 0,00 h 13,8 km/h (3 Bft)
20.04.2012 16:00 20,0 C 15,3 C 2,3 UV-I 3,2 C 37 % 50 % 85 % 997,9 hPa 0,0 l/m 8,4 km/h (2 Bft) 0,67 h 0,00 h 9,1 km/h (2 Bft)
20.04.2012 17:00 19,9 C 15,0 C 1,4 UV-I 2,6 C 37 % 51 % 73 % 997,9 hPa 0,0 l/m 6,8 km/h (2 Bft) 0,47 h 0,00 h 10,1 km/h (2 Bft)
20.04.2012 18:00 19,6 C 14,7 C 0,6 UV-I 1,4 C 38 % 53 % 40 % 997,4 hPa 0,0 l/m 6,6 km/h (2 Bft) 0,00 h 0,00 h 8,9 km/h (2 Bft)
20.04.2012 19:00 19,1 C 12,4 C 0,0 UV-I 0,1 C 39 % 65 % 4 % 997,6 hPa 1,5 l/m 5,7 km/h (1 Bft) 0,00 h 0,33 h 9,8 km/h (2 Bft)
20.04.2012 20:00 18,2 C 9,2 C 0,0 UV-I 0,0 C 44 % 81 % 0 % 997,9 hPa 0,4 l/m 2,0 km/h (1 Bft) 0,00 h 0,40 h 3,1 km/h (1 Bft)
20.04.2012 21:00 17,6 C 8,4 C 0,0 UV-I 0,0 C 46 % 87 % 0 % 998,6 hPa 0,6 l/m 2,9 km/h (1 Bft) 0,00 h 0,60 h 3,2 km/h (1 Bft)
20.04.2012 22:00 17,4 C 8,1 C 0,0 UV-I 0,0 C 47 % 89 % 0 % 998,8 hPa 0,1 l/m 0,6 km/h (0 Bft) 0,00 h 0,03 h 1,0 km/h (0 Bft)
20.04.2012 23:00 17,2 C 7,9 C 0,0 UV-I 0,0 C 48 % 89 % 0 % 998,8 hPa 0,0 l/m 0,9 km/h (0 Bft) 0,00 h 0,00 h 2,2 km/h (1 Bft)
21.04.2012 00:00 17,1 C 7,6 C 0,0 UV-I 0,0 C 48 % 89 % 0 % 998,9 hPa 0,0 l/m 2,0 km/h (1 Bft) 0,00 h 0,00 h 3,4 km/h (1 Bft)
21.04.2012 01:00 17,0 C 7,4 C 0,0 UV-I 0,0 C 48 % 89 % 0 % 998,8 hPa 0,0 l/m 1,5 km/h (1 Bft) 0,00 h 0,00 h 2,6 km/h (1 Bft)
21.04.2012 02:00 16,8 C 7,4 C 0,0 UV-I 0,0 C 49 % 88 % 0 % 998,4 hPa 0,0 l/m 1,3 km/h (1 Bft) 0,00 h 0,00 h 2,0 km/h (1 Bft)
21.04.2012 03:00 16,6 C 7,1 C 0,0 UV-I 0,0 C 49 % 88 % 0 % 998,0 hPa 0,0 l/m 2,7 km/h (1 Bft) 0,00 h 0,00 h 4,2 km/h (1 Bft)
21.04.2012 04:00 16,5 C 6,8 C 0,0 UV-I 0,0 C 49 % 88 % 0 % 997,7 hPa 0,0 l/m 3,5 km/h (1 Bft) 0,00 h 0,07 h 5,2 km/h (1 Bft)
21.04.2012 05:00 16,4 C 7,0 C 0,0 UV-I 0,0 C 49 % 89 % 0 % 997,2 hPa 0,1 l/m 4,6 km/h (1 Bft) 0,00 h 0,23 h 7,1 km/h (2 Bft)
21.04.2012 06:00 16,3 C 7,0 C 0,0 UV-I 0,0 C 50 % 90 % 0 % 997,0 hPa 0,7 l/m 2,7 km/h (1 Bft) 0,00 h 0,47 h 3,7 km/h (1 Bft)
21.04.2012 07:00 16,3 C 6,9 C 0,0 UV-I 0,0 C 51 % 92 % 0 % 997,4 hPa 0,0 l/m 3,6 km/h (1 Bft) 0,00 h 0,00 h 5,6 km/h (1 Bft)
21.04.2012 08:00 16,3 C 7,7 C 0,0 UV-I 0,5 C 51 % 92 % 14 % 997,9 hPa 0,0 l/m 3,1 km/h (1 Bft) 0,00 h 0,00 h 6,1 km/h (2 Bft)
21.04.2012 09:00 16,5 C 8,7 C 0,3 UV-I 1,3 C 50 % 89 % 38 % 998,4 hPa 0,0 l/m 5,4 km/h (1 Bft) 0,00 h 0,00 h 8,5 km/h (2 Bft)
21.04.2012 10:00 16,8 C 9,7 C 0,9 UV-I 2,7 C 49 % 82 % 74 % 998,7 hPa 0,0 l/m 6,6 km/h (2 Bft) 0,47 h 0,00 h 9,5 km/h (2 Bft)
21.04.2012 11:00 16,9 C 9,9 C 0,5 UV-I 1,4 C 47 % 76 % 39 % 998,9 hPa 0,0 l/m 6,8 km/h (2 Bft) 0,00 h 0,00 h 10,0 km/h (2 Bft)
21.04.2012 12:00 17,0 C 9,8 C 1,4 UV-I 2,6 C 48 % 78 % 64 % 999,2 hPa 0,7 l/m 5,4 km/h (1 Bft) 0,57 h 0,20 h 7,7 km/h (2 Bft)
21.04.2012 13:00 17,4 C 9,6 C 1,1 UV-I 3,0 C 48 % 79 % 63 % 999,4 hPa 0,6 l/m 7,4 km/h (2 Bft) 0,57 h 0,27 h 10,1 km/h (2 Bft)
21.04.2012 14:00 17,2 C 7,5 C 0,8 UV-I 1,1 C 48 % 87 % 24 % 999,7 hPa 0,9 l/m 6,1 km/h (2 Bft) 0,20 h 0,10 h 7,9 km/h (2 Bft)
21.04.2012 15:00 18,0 C 9,4 C 1,3 UV-I 2,9 C 48 % 85 % 76 % 1000,3 hPa 0,0 l/m 6,8 km/h (2 Bft) 0,43 h 0,00 h 9,0 km/h (2 Bft)
21.04.2012 16:00 18,9 C 10,9 C 2,5 UV-I 4,1 C 44 % 77 % 96 % 1001,0 hPa 0,0 l/m 6,5 km/h (2 Bft) 0,90 h 0,00 h 9,8 km/h (2 Bft)
21.04.2012 17:00 20,0 C 11,8 C 1,4 UV-I 2,8 C 41 % 69 % 64 % 1002,1 hPa 0,0 l/m 7,3 km/h (2 Bft) 0,53 h 0,00 h 11,3 km/h (2 Bft)
21.04.2012 18:00 19,1 C 10,4 C 0,1 UV-I 0,6 C 42 % 75 % 18 % 1000,6 hPa 0,0 l/m 4,7 km/h (1 Bft) 0,00 h 0,07 h 5,8 km/h (2 Bft)
21.04.2012 19:00 18,5 C 10,5 C 0,0 UV-I 0,3 C 43 % 71 % 7 % 1000,1 hPa 0,0 l/m 1,8 km/h (1 Bft) 0,00 h 0,00 h 2,4 km/h (1 Bft)
21.04.2012 20:00 17,7 C 9,4 C 0,0 UV-I 0,0 C 45 % 75 % 0 % 999,8 hPa 0,0 l/m 0,3 km/h (0 Bft) 0,00 h 0,00 h 0,5 km/h (0 Bft)
21.04.2012 21:00 17,1 C 7,3 C 0,0 UV-I 0,0 C 46 % 83 % 0 % 1000,9 hPa 0,9 l/m 4,2 km/h (1 Bft) 0,00 h 0,37 h 6,6 km/h (2 Bft)
21.04.2012 22:00 16,7 C 6,1 C 0,0 UV-I 0,0 C 49 % 88 % 0 % 1001,4 hPa 0,0 l/m 1,0 km/h (0 Bft) 0,00 h 0,00 h 2,5 km/h (1 Bft)
21.04.2012 23:00 16,4 C 6,2 C 0,0 UV-I 0,0 C 49 % 91 % 0 % 1001,9 hPa 0,4 l/m 2,0 km/h (1 Bft) 0,00 h 0,20 h 3,0 km/h (1 Bft)
22.04.2012 00:00 16,3 C 6,2 C 0,0 UV-I 0,0 C 50 % 92 % 0 % 1002,5 hPa 0,1 l/m 2,1 km/h (1 Bft) 0,00 h 0,13 h 4,6 km/h (1 Bft)
22.04.2012 01:00 16,2 C 6,2 C 0,0 UV-I 0,0 C 50 % 93 % 0 % 1002,8 hPa 0,1 l/m 1,1 km/h (1 Bft) 0,00 h 0,23 h 1,6 km/h (1 Bft)
22.04.2012 02:00 15,9 C 5,8 C 0,0 UV-I 0,0 C 51 % 93 % 0 % 1003,0 hPa 0,0 l/m 0,6 km/h (0 Bft) 0,00 h 0,00 h 1,7 km/h (1 Bft)
22.04.2012 03:00 15,8 C 5,9 C 0,0 UV-I 0,0 C 51 % 93 % 0 % 1003,2 hPa 0,0 l/m 2,0 km/h (1 Bft) 0,00 h 0,00 h 3,5 km/h (1 Bft)
22.04.2012 04:00 15,7 C 6,2 C 0,0 UV-I 0,0 C 51 % 94 % 0 % 1003,2 hPa 0,0 l/m 3,7 km/h (1 Bft) 0,00 h 0,00 h 6,5 km/h (2 Bft)
22.04.2012 05:00 15,6 C 6,5 C 0,0 UV-I 0,0 C 51 % 93 % 0 % 1003,2 hPa 0,0 l/m 3,3 km/h (1 Bft) 0,00 h 0,00 h 5,3 km/h (1 Bft)
22.04.2012 06:00 15,6 C 6,8 C 0,0 UV-I 0,0 C 51 % 92 % 0 % 1003,4 hPa 0,0 l/m 4,9 km/h (1 Bft) 0,00 h 0,00 h 7,9 km/h (2 Bft)
22.04.2012 07:00 15,6 C 7,1 C 0,0 UV-I 0,0 C 52 % 92 % 0 % 1003,8 hPa 0,0 l/m 4,6 km/h (1 Bft) 0,00 h 0,00 h 7,1 km/h (2 Bft)
22.04.2012 08:00 15,6 C 7,7 C 0,0 UV-I 0,7 C 52 % 91 % 20 % 1004,5 hPa 0,0 l/m 6,3 km/h (2 Bft) 0,00 h 0,00 h 9,3 km/h (2 Bft)
22.04.2012 09:00 15,8 C 8,4 C 0,4 UV-I 1,7 C 52 % 90 % 46 % 1005,2 hPa 0,2 l/m 6,6 km/h (2 Bft) 0,30 h 0,10 h 8,8 km/h (2 Bft)
22.04.2012 10:00 16,2 C 9,5 C 1,1 UV-I 3,0 C 52 % 87 % 79 % 1005,8 hPa 0,0 l/m 8,6 km/h (2 Bft) 0,40 h 0,00 h 11,6 km/h (2 Bft)
22.04.2012 11:00 18,1 C 10,1 C 2,0 UV-I 3,6 C 47 % 83 % 84 % 1005,6 hPa 0,1 l/m 8,5 km/h (2 Bft) 0,70 h 0,07 h 12,8 km/h (3 Bft)
22.04.2012 12:00 17,1 C 10,9 C 1,5 UV-I 2,7 C 45 % 73 % 65 % 1005,3 hPa 0,0 l/m 8,9 km/h (2 Bft) 0,50 h 0,03 h 17,6 km/h (3 Bft)
22.04.2012 13:00 16,5 C 10,5 C 1,5 UV-I 3,5 C 46 % 74 % 65 % 1005,2 hPa 0,0 l/m 7,2 km/h (2 Bft) 0,57 h 0,07 h 11,3 km/h (2 Bft)
22.04.2012 14:00 17,5 C 10,9 C 1,5 UV-I 3,3 C 46 % 75 % 75 % 1005,4 hPa 1,0 l/m 5,0 km/h (1 Bft) 0,67 h 0,20 h 8,5 km/h (2 Bft)
22.04.2012 15:00 18,6 C 11,2 C 1,9 UV-I 3,1 C 45 % 74 % 72 % 1004,4 hPa 0,0 l/m 5,6 km/h (1 Bft) 0,50 h 0,13 h 11,6 km/h (2 Bft)
22.04.2012 16:00 20,3 C 13,1 C 2,6 UV-I 4,6 C 40 % 62 % 89 % 1004,6 hPa 0,0 l/m 6,6 km/h (2 Bft) 0,77 h 0,00 h 11,5 km/h (2 Bft)
22.04.2012 17:00 19,8 C 11,6 C 0,9 UV-I 1,7 C 40 % 68 % 49 % 1005,2 hPa 0,0 l/m 8,4 km/h (2 Bft) 0,00 h 0,00 h 14,2 km/h (3 Bft)
22.04.2012 18:00 19,1 C 11,2 C 0,3 UV-I 0,6 C 41 % 68 % 16 % 1004,1 hPa 0,0 l/m 6,6 km/h (2 Bft) 0,00 h 0,00 h 13,0 km/h (3 Bft)
22.04.2012 19:00 18,1 C 8,5 C 0,0 UV-I 0,0 C 43 % 79 % 0 % 1004,9 hPa 0,0 l/m 5,1 km/h (1 Bft) 0,00 h 0,32 h 10,8 km/h (2 Bft)
22.04.2012 20:00 17,5 C 8,4 C 0,0 UV-I 0,0 C 45 % 82 % 0 % 1004,9 hPa 0,1 l/m 3,8 km/h (1 Bft) 0,00 h 0,00 h 7,8 km/h (2 Bft)
22.04.2012 21:00 17,0 C 8,0 C 0,0 UV-I 0,0 C 47 % 82 % 0 % 1005,3 hPa 0,0 l/m 2,5 km/h (1 Bft) 0,00 h 0,00 h 6,0 km/h (2 Bft)
22.04.2012 22:00 16,7 C 7,5 C 0,0 UV-I 0,0 C 47 % 84 % 0 % 1005,4 hPa 0,0 l/m 4,3 km/h (1 Bft) 0,00 h 0,00 h 9,7 km/h (2 Bft)
22.04.2012 23:00 16,5 C 7,0 C 0,0 UV-I 0,0 C 47 % 85 % 0 % 1005,5 hPa 0,0 l/m 4,8 km/h (1 Bft) 0,00 h 0,00 h 9,2 km/h (2 Bft)
Min-Datum _ 17.04.12 17.04.12 16.04.12 16.04.12 17.04.12 17.04.12 16.04.12 19.04.12 - 16.04.12 - - 16.04.12
_ Min-Zeit 07:08 05:56 00:00 00:00 16:18 16:14 00:00 04:44 - 04:18 - - 04:10
Minimum _ 13,4 C -1,1 C 0,0 UV-I 0,0 C 28 % 38 % 0 % 987,0 hPa - 0,0 km/h (0 Bft) - - 0,0 km/h (0 Bft)
Max-Datum _ 22.04.12 20.04.12 20.04.12 20.04.12 20.04.12 22.04.12 16.04.12 16.04.12 20.04.12 16.04.12 16.04.12 16.04.12 17.04.12
_ Max-Zeit 11:32 15:04 10:54 09:54 09:14 03:20 08:44 15:44 19:40 11:58 08:42 05:30 13:58
Maximum _ 22,6 C 16,3 C 4,6 UV-I 9,1 C 54 % 94 % 100 % 1024,2 hPa 1,5 l/m 17,7 km/h
W (3 Bft)
0,03 h 0,03 h 52,6 km/h
O-NO (7 Bft)
Durchschnitt _ 16,2 C 8,4 C 0,6 UV-I 1,4 C 45 % 75 % 30 % 1002,0 hPa #10,5 l/m 5,9 km/h (2 Bft) #37:50 h #8:23 h 10,0 km/h (2 Bft)
© 2012 W. Hausmann